sensor_id;sensor_type;location;lat;lon;timestamp;temperature;humidity
3005;DHT22;1512;51.486;6.610;2022-11-11T00:03:56;9.30;99.90
3005;DHT22;1512;51.486;6.610;2022-11-11T00:08:05;9.30;99.90
3005;DHT22;1512;51.486;6.610;2022-11-11T00:12:14;9.30;99.90
3005;DHT22;1512;51.486;6.610;2022-11-11T00:16:24;9.20;99.90
3005;DHT22;1512;51.486;6.610;2022-11-11T00:20:54;9.20;99.90
3005;DHT22;1512;51.486;6.610;2022-11-11T00:25:22;9.20;99.90
3005;DHT22;1512;51.486;6.610;2022-11-11T00:29:31;9.10;99.90
3005;DHT22;1512;51.486;6.610;2022-11-11T00:33:39;9.10;99.90
3005;DHT22;1512;51.486;6.610;2022-11-11T00:37:48;9.10;99.90
3005;DHT22;1512;51.486;6.610;2022-11-11T00:41:56;9.00;99.90
3005;DHT22;1512;51.486;6.610;2022-11-11T00:46:05;9.00;99.90
3005;DHT22;1512;51.486;6.610;2022-11-11T00:50:32;9.00;99.90
3005;DHT22;1512;51.486;6.610;2022-11-11T00:54:59;8.90;99.90
3005;DHT22;1512;51.486;6.610;2022-11-11T00:59:08;8.90;99.90
3005;DHT22;1512;51.486;6.610;2022-11-11T01:03:36;8.90;99.90
3005;DHT22;1512;51.486;6.610;2022-11-11T01:07:44;8.90;99.90
3005;DHT22;1512;51.486;6.610;2022-11-11T01:11:54;8.80;99.90
3005;DHT22;1512;51.486;6.610;2022-11-11T01:16:07;8.80;99.90
3005;DHT22;1512;51.486;6.610;2022-11-11T01:20:16;8.90;99.90
3005;DHT22;1512;51.486;6.610;2022-11-11T01:24:25;8.80;99.90
3005;DHT22;1512;51.486;6.610;2022-11-11T01:28:33;8.80;99.90
3005;DHT22;1512;51.486;6.610;2022-11-11T01:33:02;8.80;99.90
3005;DHT22;1512;51.486;6.610;2022-11-11T01:37:10;8.70;99.90
3005;DHT22;1512;51.486;6.610;2022-11-11T01:41:22;8.70;99.90
3005;DHT22;1512;51.486;6.610;2022-11-11T01:45:50;8.70;99.90
3005;DHT22;1512;51.486;6.610;2022-11-11T01:50:00;8.70;99.90
3005;DHT22;1512;51.486;6.610;2022-11-11T01:54:16;8.70;99.90
3005;DHT22;1512;51.486;6.610;2022-11-11T01:58:21;8.70;99.90
3005;DHT22;1512;51.486;6.610;2022-11-11T02:02:33;8.70;99.90
3005;DHT22;1512;51.486;6.610;2022-11-11T02:06:42;8.70;99.90
3005;DHT22;1512;51.486;6.610;2022-11-11T02:10:51;8.60;99.90
3005;DHT22;1512;51.486;6.610;2022-11-11T02:15:00;8.60;99.90
3005;DHT22;1512;51.486;6.610;2022-11-11T02:19:09;8.60;99.90
3005;DHT22;1512;51.486;6.610;2022-11-11T02:28:04;8.50;99.90
3005;DHT22;1512;51.486;6.610;2022-11-11T02:32:13;8.50;99.90
3005;DHT22;1512;51.486;6.610;2022-11-11T02:36:22;8.40;99.90
3005;DHT22;1512;51.486;6.610;2022-11-11T02:40:42;8.40;99.90
3005;DHT22;1512;51.486;6.610;2022-11-11T02:44:53;8.50;99.90
3005;DHT22;1512;51.486;6.610;2022-11-11T02:49:03;8.50;99.90
3005;DHT22;1512;51.486;6.610;2022-11-11T02:53:12;8.50;99.90
3005;DHT22;1512;51.486;6.610;2022-11-11T02:57:21;8.50;99.90
3005;DHT22;1512;51.486;6.610;2022-11-11T03:01:30;8.40;99.90
3005;DHT22;1512;51.486;6.610;2022-11-11T03:05:39;8.30;99.90
3005;DHT22;1512;51.486;6.610;2022-11-11T03:09:47;8.30;99.90
3005;DHT22;1512;51.486;6.610;2022-11-11T03:13:57;8.30;99.90
3005;DHT22;1512;51.486;6.610;2022-11-11T03:18:07;8.30;99.90
3005;DHT22;1512;51.486;6.610;2022-11-11T03:22:17;8.20;99.90
3005;DHT22;1512;51.486;6.610;2022-11-11T03:26:27;8.30;99.90
3005;DHT22;1512;51.486;6.610;2022-11-11T03:30:37;8.30;99.90
3005;DHT22;1512;51.486;6.610;2022-11-11T03:35:05;8.30;99.90
3005;DHT22;1512;51.486;6.610;2022-11-11T03:39:14;8.30;99.90
3005;DHT22;1512;51.486;6.610;2022-11-11T03:43:25;8.20;99.90
3005;DHT22;1512;51.486;6.610;2022-11-11T03:47:34;8.20;99.90
3005;DHT22;1512;51.486;6.610;2022-11-11T03:51:42;8.10;99.90
3005;DHT22;1512;51.486;6.610;2022-11-11T03:55:51;8.10;99.90
3005;DHT22;1512;51.486;6.610;2022-11-11T04:00:00;8.10;99.90
3005;DHT22;1512;51.486;6.610;2022-11-11T04:04:11;8.10;99.90
3005;DHT22;1512;51.486;6.610;2022-11-11T04:08:55;8.20;99.90
3005;DHT22;1512;51.486;6.610;2022-11-11T04:13:31;8.20;99.90
3005;DHT22;1512;51.486;6.610;2022-11-11T04:18:14;8.20;99.90
3005;DHT22;1512;51.486;6.610;2022-11-11T04:23:07;8.10;99.90
3005;DHT22;1512;51.486;6.610;2022-11-11T04:32:19;8.10;99.90
3005;DHT22;1512;51.486;6.610;2022-11-11T04:41:43;8.00;99.90
3005;DHT22;1512;51.486;6.610;2022-11-11T04:51:04;8.00;99.90
3005;DHT22;1512;51.486;6.610;2022-11-11T04:55:40;7.90;99.90
3005;DHT22;1512;51.486;6.610;2022-11-11T05:00:08;7.90;99.90
3005;DHT22;1512;51.486;6.610;2022-11-11T05:04:17;7.90;99.90
3005;DHT22;1512;51.486;6.610;2022-11-11T05:08:26;7.90;99.90
3005;DHT22;1512;51.486;6.610;2022-11-11T05:12:52;7.90;99.90
3005;DHT22;1512;51.486;6.610;2022-11-11T05:17:04;7.90;99.90
3005;DHT22;1512;51.486;6.610;2022-11-11T05:21:31;7.90;99.90
3005;DHT22;1512;51.486;6.610;2022-11-11T05:25:40;7.80;99.90
3005;DHT22;1512;51.486;6.610;2022-11-11T05:29:48;7.80;99.90
3005;DHT22;1512;51.486;6.610;2022-11-11T05:33:57;7.80;99.90
3005;DHT22;1512;51.486;6.610;2022-11-11T05:38:25;7.80;99.90
3005;DHT22;1512;51.486;6.610;2022-11-11T05:42:33;7.80;99.90
3005;DHT22;1512;51.486;6.610;2022-11-11T05:46:44;7.90;99.90
3005;DHT22;1512;51.486;6.610;2022-11-11T05:50:52;7.80;99.90
3005;DHT22;1512;51.486;6.610;2022-11-11T05:55:01;7.80;99.90
3005;DHT22;1512;51.486;6.610;2022-11-11T05:59:10;7.80;99.90
3005;DHT22;1512;51.486;6.610;2022-11-11T06:03:19;7.80;99.90
3005;DHT22;1512;51.486;6.610;2022-11-11T06:07:28;7.90;99.90
3005;DHT22;1512;51.486;6.610;2022-11-11T06:11:36;7.90;99.90
3005;DHT22;1512;51.486;6.610;2022-11-11T06:15:45;7.90;99.90
3005;DHT22;1512;51.486;6.610;2022-11-11T06:19:53;7.90;99.90
3005;DHT22;1512;51.486;6.610;2022-11-11T06:24:02;7.90;99.90
3005;DHT22;1512;51.486;6.610;2022-11-11T06:28:11;7.90;99.90
3005;DHT22;1512;51.486;6.610;2022-11-11T06:32:19;7.90;99.90
3005;DHT22;1512;51.486;6.610;2022-11-11T06:36:28;7.90;99.90
3005;DHT22;1512;51.486;6.610;2022-11-11T06:40:56;7.90;99.90
3005;DHT22;1512;51.486;6.610;2022-11-11T06:45:05;7.90;99.90
3005;DHT22;1512;51.486;6.610;2022-11-11T06:49:14;7.90;99.90
3005;DHT22;1512;51.486;6.610;2022-11-11T06:53:22;7.90;99.90
3005;DHT22;1512;51.486;6.610;2022-11-11T06:57:32;7.90;99.90
3005;DHT22;1512;51.486;6.610;2022-11-11T07:01:40;7.90;99.90
3005;DHT22;1512;51.486;6.610;2022-11-11T07:05:49;8.00;99.90
3005;DHT22;1512;51.486;6.610;2022-11-11T07:09:59;8.00;99.90
3005;DHT22;1512;51.486;6.610;2022-11-11T07:14:09;8.00;99.90
3005;DHT22;1512;51.486;6.610;2022-11-11T07:18:17;8.00;99.90
3005;DHT22;1512;51.486;6.610;2022-11-11T07:22:26;8.00;99.90
3005;DHT22;1512;51.486;6.610;2022-11-11T07:26:35;8.10;99.90
3005;DHT22;1512;51.486;6.610;2022-11-11T07:30:43;8.10;99.90
3005;DHT22;1512;51.486;6.610;2022-11-11T07:34:52;8.20;99.90
3005;DHT22;1512;51.486;6.610;2022-11-11T07:39:00;8.20;99.90
3005;DHT22;1512;51.486;6.610;2022-11-11T07:43:11;8.20;99.90
3005;DHT22;1512;51.486;6.610;2022-11-11T07:47:20;8.30;99.90
3005;DHT22;1512;51.486;6.610;2022-11-11T07:51:29;8.30;99.90
3005;DHT22;1512;51.486;6.610;2022-11-11T07:55:37;8.40;99.90
3005;DHT22;1512;51.486;6.610;2022-11-11T07:59:46;8.50;99.90
3005;DHT22;1512;51.486;6.610;2022-11-11T08:03:55;8.50;99.90
3005;DHT22;1512;51.486;6.610;2022-11-11T08:08:07;8.50;99.90
3005;DHT22;1512;51.486;6.610;2022-11-11T08:12:16;8.60;99.90
3005;DHT22;1512;51.486;6.610;2022-11-11T08:16:43;8.70;99.90
3005;DHT22;1512;51.486;6.610;2022-11-11T08:20:52;8.70;99.90
3005;DHT22;1512;51.486;6.610;2022-11-11T08:25:03;8.80;99.90
3005;DHT22;1512;51.486;6.610;2022-11-11T08:29:12;8.90;99.90
3005;DHT22;1512;51.486;6.610;2022-11-11T08:33:21;9.00;99.90
3005;DHT22;1512;51.486;6.610;2022-11-11T08:37:31;9.10;99.90
3005;DHT22;1512;51.486;6.610;2022-11-11T08:41:41;9.10;99.90
3005;DHT22;1512;51.486;6.610;2022-11-11T08:45:51;9.20;99.90
3005;DHT22;1512;51.486;6.610;2022-11-11T08:50:00;9.30;99.90
3005;DHT22;1512;51.486;6.610;2022-11-11T08:54:11;9.40;99.90
3005;DHT22;1512;51.486;6.610;2022-11-11T08:58:20;9.50;99.90
3005;DHT22;1512;51.486;6.610;2022-11-11T09:02:28;9.60;99.90
3005;DHT22;1512;51.486;6.610;2022-11-11T09:06:37;9.70;99.90
3005;DHT22;1512;51.486;6.610;2022-11-11T09:10:47;9.70;99.90
3005;DHT22;1512;51.486;6.610;2022-11-11T09:14:56;9.80;99.90
3005;DHT22;1512;51.486;6.610;2022-11-11T09:19:04;9.80;99.90
3005;DHT22;1512;51.486;6.610;2022-11-11T09:23:13;9.90;99.90
3005;DHT22;1512;51.486;6.610;2022-11-11T09:27:22;10.00;99.90
3005;DHT22;1512;51.486;6.610;2022-11-11T09:31:31;10.00;99.90
3005;DHT22;1512;51.486;6.610;2022-11-11T09:35:41;10.00;99.90
3005;DHT22;1512;51.486;6.610;2022-11-11T09:39:50;10.10;99.90
3005;DHT22;1512;51.486;6.610;2022-11-11T09:44:01;10.20;99.90
3005;DHT22;1512;51.486;6.610;2022-11-11T09:52:55;10.30;99.90
3005;DHT22;1512;51.486;6.610;2022-11-11T09:57:05;10.40;99.90
3005;DHT22;1512;51.486;6.610;2022-11-11T10:01:22;10.50;99.90
3005;DHT22;1512;51.486;6.610;2022-11-11T10:05:54;10.60;99.90
3005;DHT22;1512;51.486;6.610;2022-11-11T10:14:46;10.70;99.90
3005;DHT22;1512;51.486;6.610;2022-11-11T10:23:37;10.90;99.90
3005;DHT22;1512;51.486;6.610;2022-11-11T10:27:48;11.00;99.90
3005;DHT22;1512;51.486;6.610;2022-11-11T10:32:01;11.10;99.90
3005;DHT22;1512;51.486;6.610;2022-11-11T10:36:17;11.30;99.90
3005;DHT22;1512;51.486;6.610;2022-11-11T10:40:24;11.40;99.90
3005;DHT22;1512;51.486;6.610;2022-11-11T10:44:33;11.50;99.90
3005;DHT22;1512;51.486;6.610;2022-11-11T10:49:14;11.60;99.90
3005;DHT22;1512;51.486;6.610;2022-11-11T10:53:32;11.70;99.90
3005;DHT22;1512;51.486;6.610;2022-11-11T10:57:54;11.70;99.90
3005;DHT22;1512;51.486;6.610;2022-11-11T11:02:27;11.80;99.90
3005;DHT22;1512;51.486;6.610;2022-11-11T11:06:35;11.90;99.90
3005;DHT22;1512;51.486;6.610;2022-11-11T11:10:48;12.00;99.90
3005;DHT22;1512;51.486;6.610;2022-11-11T11:15:03;12.10;99.90
3005;DHT22;1512;51.486;6.610;2022-11-11T11:19:26;12.10;99.90
3005;DHT22;1512;51.486;6.610;2022-11-11T11:23:43;12.20;99.90
3005;DHT22;1512;51.486;6.610;2022-11-11T11:27:53;12.30;99.90
3005;DHT22;1512;51.486;6.610;2022-11-11T11:32:31;12.40;99.90
3005;DHT22;1512;51.486;6.610;2022-11-11T11:36:40;12.40;99.90
3005;DHT22;1512;51.486;6.610;2022-11-11T11:40:56;12.50;99.90
3005;DHT22;1512;51.486;6.610;2022-11-11T11:54:16;12.70;99.90
3005;DHT22;1512;51.486;6.610;2022-11-11T12:11:49;12.80;99.90
3005;DHT22;1512;51.486;6.610;2022-11-11T12:20:46;12.90;99.90
3005;DHT22;1512;51.486;6.610;2022-11-11T12:47:44;13.00;99.90
3005;DHT22;1512;51.486;6.610;2022-11-11T13:00:31;13.00;99.90
3005;DHT22;1512;51.486;6.610;2022-11-11T13:04:54;13.00;99.90
3005;DHT22;1512;51.486;6.610;2022-11-11T13:13:40;13.00;99.90
3005;DHT22;1512;51.486;6.610;2022-11-11T13:17:44;13.00;99.90
3005;DHT22;1512;51.486;6.610;2022-11-11T13:22:02;13.00;99.90
3005;DHT22;1512;51.486;6.610;2022-11-11T13:30:47;13.00;99.90
3005;DHT22;1512;51.486;6.610;2022-11-11T13:34:55;13.00;99.90
3005;DHT22;1512;51.486;6.610;2022-11-11T13:39:05;13.00;99.90
3005;DHT22;1512;51.486;6.610;2022-11-11T13:43:20;13.00;99.90
3005;DHT22;1512;51.486;6.610;2022-11-11T13:47:35;13.00;99.90
3005;DHT22;1512;51.486;6.610;2022-11-11T13:51:43;13.00;99.90
3005;DHT22;1512;51.486;6.610;2022-11-11T13:55:57;13.10;99.90
3005;DHT22;1512;51.486;6.610;2022-11-11T14:00:30;13.10;99.90
3005;DHT22;1512;51.486;6.610;2022-11-11T14:04:16;13.10;99.90
3005;DHT22;1512;51.486;6.610;2022-11-11T14:13:44;13.10;99.90
3005;DHT22;1512;51.486;6.610;2022-11-11T14:17:27;13.00;99.90
3005;DHT22;1512;51.486;6.610;2022-11-11T14:21:46;13.00;99.90
3005;DHT22;1512;51.486;6.610;2022-11-11T14:30:36;12.90;99.90
3005;DHT22;1512;51.486;6.610;2022-11-11T14:35:09;12.80;99.90
3005;DHT22;1512;51.486;6.610;2022-11-11T14:39:38;12.80;99.90
3005;DHT22;1512;51.486;6.610;2022-11-11T14:43:43;12.70;99.90
3005;DHT22;1512;51.486;6.610;2022-11-11T14:47:51;12.60;99.90
3005;DHT22;1512;51.486;6.610;2022-11-11T14:52:01;12.60;99.90
3005;DHT22;1512;51.486;6.610;2022-11-11T14:56:14;12.50;99.90
3005;DHT22;1512;51.486;6.610;2022-11-11T15:00:48;12.40;99.90
3005;DHT22;1512;51.486;6.610;2022-11-11T15:04:59;12.40;99.90
3005;DHT22;1512;51.486;6.610;2022-11-11T15:27:57;12.00;99.90
3005;DHT22;1512;51.486;6.610;2022-11-11T15:32:24;11.90;99.90
3005;DHT22;1512;51.486;6.610;2022-11-11T15:36:53;11.80;99.90
3005;DHT22;1512;51.486;6.610;2022-11-11T15:41:01;11.70;99.90
3005;DHT22;1512;51.486;6.610;2022-11-11T15:45:32;11.70;99.90
3005;DHT22;1512;51.486;6.610;2022-11-11T15:49:46;11.60;99.90
3005;DHT22;1512;51.486;6.610;2022-11-11T15:58:26;11.50;99.90
3005;DHT22;1512;51.486;6.610;2022-11-11T16:02:36;11.40;99.90
3005;DHT22;1512;51.486;6.610;2022-11-11T16:06:46;11.30;99.90
3005;DHT22;1512;51.486;6.610;2022-11-11T16:10:58;11.20;99.90
3005;DHT22;1512;51.486;6.610;2022-11-11T16:15:08;11.10;99.90
3005;DHT22;1512;51.486;6.610;2022-11-11T16:23:36;11.00;99.90
3005;DHT22;1512;51.486;6.610;2022-11-11T16:27:46;10.90;99.90
3005;DHT22;1512;51.486;6.610;2022-11-11T16:31:55;10.80;99.90
3005;DHT22;1512;51.486;6.610;2022-11-11T16:36:09;10.70;99.90
3005;DHT22;1512;51.486;6.610;2022-11-11T16:40:33;10.70;99.90
3005;DHT22;1512;51.486;6.610;2022-11-11T16:44:40;10.60;99.90
3005;DHT22;1512;51.486;6.610;2022-11-11T16:48:51;10.50;99.90
3005;DHT22;1512;51.486;6.610;2022-11-11T16:57:20;10.40;99.90
3005;DHT22;1512;51.486;6.610;2022-11-11T17:01:29;10.30;99.90
3005;DHT22;1512;51.486;6.610;2022-11-11T17:05:58;10.20;99.90
3005;DHT22;1512;51.486;6.610;2022-11-11T17:14:39;10.10;99.90
3005;DHT22;1512;51.486;6.610;2022-11-11T17:18:48;10.10;99.90
3005;DHT22;1512;51.486;6.610;2022-11-11T17:22:57;10.00;99.90
3005;DHT22;1512;51.486;6.610;2022-11-11T17:27:07;9.90;99.90
3005;DHT22;1512;51.486;6.610;2022-11-11T17:31:15;9.90;99.90
3005;DHT22;1512;51.486;6.610;2022-11-11T17:35:24;9.90;99.90
3005;DHT22;1512;51.486;6.610;2022-11-11T17:39:33;9.80;99.90
3005;DHT22;1512;51.486;6.610;2022-11-11T17:43:41;9.80;99.90
3005;DHT22;1512;51.486;6.610;2022-11-11T17:47:50;9.70;99.90
3005;DHT22;1512;51.486;6.610;2022-11-11T17:51:58;9.60;99.90
3005;DHT22;1512;51.486;6.610;2022-11-11T17:56:08;9.60;99.90
3005;DHT22;1512;51.486;6.610;2022-11-11T18:00:17;9.50;99.90
3005;DHT22;1512;51.486;6.610;2022-11-11T18:04:26;9.50;99.90
3005;DHT22;1512;51.486;6.610;2022-11-11T18:08:35;9.40;99.90
3005;DHT22;1512;51.486;6.610;2022-11-11T18:12:43;9.40;99.90
3005;DHT22;1512;51.486;6.610;2022-11-11T18:16:52;9.30;99.90
3005;DHT22;1512;51.486;6.610;2022-11-11T18:21:20;9.30;99.90
3005;DHT22;1512;51.486;6.610;2022-11-11T18:25:30;9.20;99.90
3005;DHT22;1512;51.486;6.610;2022-11-11T18:33:59;9.10;99.90
3005;DHT22;1512;51.486;6.610;2022-11-11T18:38:28;9.10;99.90
3005;DHT22;1512;51.486;6.610;2022-11-11T18:42:37;9.00;99.90
3005;DHT22;1512;51.486;6.610;2022-11-11T18:47:05;9.00;99.90
3005;DHT22;1512;51.486;6.610;2022-11-11T18:51:15;8.90;99.90
3005;DHT22;1512;51.486;6.610;2022-11-11T18:55:25;8.90;99.90
3005;DHT22;1512;51.486;6.610;2022-11-11T18:59:33;8.80;99.90
3005;DHT22;1512;51.486;6.610;2022-11-11T19:03:42;8.80;99.90
3005;DHT22;1512;51.486;6.610;2022-11-11T19:07:50;8.70;99.90
3005;DHT22;1512;51.486;6.610;2022-11-11T19:11:59;8.70;99.90
3005;DHT22;1512;51.486;6.610;2022-11-11T19:16:10;8.70;99.90
3005;DHT22;1512;51.486;6.610;2022-11-11T19:20:20;8.60;99.90
3005;DHT22;1512;51.486;6.610;2022-11-11T19:24:28;8.50;99.90
3005;DHT22;1512;51.486;6.610;2022-11-11T19:28:39;8.50;99.90
3005;DHT22;1512;51.486;6.610;2022-11-11T19:32:49;8.40;99.90
3005;DHT22;1512;51.486;6.610;2022-11-11T19:36:57;8.40;99.90
3005;DHT22;1512;51.486;6.610;2022-11-11T19:41:11;8.40;99.90
3005;DHT22;1512;51.486;6.610;2022-11-11T19:45:20;8.40;99.90
3005;DHT22;1512;51.486;6.610;2022-11-11T19:49:29;8.50;99.90
3005;DHT22;1512;51.486;6.610;2022-11-11T19:53:38;8.60;99.90
3005;DHT22;1512;51.486;6.610;2022-11-11T19:57:47;8.60;99.90
3005;DHT22;1512;51.486;6.610;2022-11-11T20:01:55;8.60;99.90
3005;DHT22;1512;51.486;6.610;2022-11-11T20:06:05;8.70;99.90
3005;DHT22;1512;51.486;6.610;2022-11-11T20:10:14;8.70;99.90
3005;DHT22;1512;51.486;6.610;2022-11-11T20:14:22;8.70;99.90
3005;DHT22;1512;51.486;6.610;2022-11-11T20:18:32;8.70;99.90
3005;DHT22;1512;51.486;6.610;2022-11-11T20:22:40;8.70;99.90
3005;DHT22;1512;51.486;6.610;2022-11-11T20:26:49;8.70;99.90
3005;DHT22;1512;51.486;6.610;2022-11-11T20:31:04;8.70;99.90
3005;DHT22;1512;51.486;6.610;2022-11-11T20:35:12;8.70;99.90
3005;DHT22;1512;51.486;6.610;2022-11-11T20:39:21;8.70;99.90
3005;DHT22;1512;51.486;6.610;2022-11-11T20:43:31;8.60;99.90
3005;DHT22;1512;51.486;6.610;2022-11-11T20:47:39;8.60;99.90
3005;DHT22;1512;51.486;6.610;2022-11-11T20:51:48;8.60;99.90
3005;DHT22;1512;51.486;6.610;2022-11-11T20:56:02;8.50;99.90
3005;DHT22;1512;51.486;6.610;2022-11-11T21:00:11;8.50;99.90
3005;DHT22;1512;51.486;6.610;2022-11-11T21:04:20;8.40;99.90
3005;DHT22;1512;51.486;6.610;2022-11-11T21:08:29;8.40;99.90
3005;DHT22;1512;51.486;6.610;2022-11-11T21:12:39;8.40;99.90
3005;DHT22;1512;51.486;6.610;2022-11-11T21:16:48;8.40;99.90
3005;DHT22;1512;51.486;6.610;2022-11-11T21:21:03;8.30;99.90
3005;DHT22;1512;51.486;6.610;2022-11-11T21:25:07;8.30;99.90
3005;DHT22;1512;51.486;6.610;2022-11-11T21:29:15;8.20;99.90
3005;DHT22;1512;51.486;6.610;2022-11-11T21:33:24;8.20;99.90
3005;DHT22;1512;51.486;6.610;2022-11-11T21:37:53;8.10;99.90
3005;DHT22;1512;51.486;6.610;2022-11-11T21:42:02;8.10;99.90
3005;DHT22;1512;51.486;6.610;2022-11-11T21:46:15;8.00;99.90
3005;DHT22;1512;51.486;6.610;2022-11-11T21:50:24;8.00;99.90
3005;DHT22;1512;51.486;6.610;2022-11-11T21:54:33;8.00;99.90
3005;DHT22;1512;51.486;6.610;2022-11-11T21:58:42;7.90;99.90
3005;DHT22;1512;51.486;6.610;2022-11-11T22:02:51;7.90;99.90
3005;DHT22;1512;51.486;6.610;2022-11-11T22:07:00;7.80;99.90
3005;DHT22;1512;51.486;6.610;2022-11-11T22:11:14;7.80;99.90
3005;DHT22;1512;51.486;6.610;2022-11-11T22:15:22;7.80;99.90
3005;DHT22;1512;51.486;6.610;2022-11-11T22:19:42;7.80;99.90
3005;DHT22;1512;51.486;6.610;2022-11-11T22:24:10;7.70;99.90
3005;DHT22;1512;51.486;6.610;2022-11-11T22:28:18;7.70;99.90
3005;DHT22;1512;51.486;6.610;2022-11-11T22:32:27;7.60;99.90
3005;DHT22;1512;51.486;6.610;2022-11-11T22:36:36;7.60;99.90
3005;DHT22;1512;51.486;6.610;2022-11-11T22:40:45;7.60;99.90
3005;DHT22;1512;51.486;6.610;2022-11-11T22:44:54;7.50;99.90
3005;DHT22;1512;51.486;6.610;2022-11-11T22:49:22;7.50;99.90
3005;DHT22;1512;51.486;6.610;2022-11-11T22:53:31;7.50;99.90
3005;DHT22;1512;51.486;6.610;2022-11-11T22:57:39;7.50;99.90
3005;DHT22;1512;51.486;6.610;2022-11-11T23:01:48;7.50;99.90
3005;DHT22;1512;51.486;6.610;2022-11-11T23:06:07;7.50;99.90
3005;DHT22;1512;51.486;6.610;2022-11-11T23:10:11;7.40;99.90
3005;DHT22;1512;51.486;6.610;2022-11-11T23:14:19;7.40;99.90
3005;DHT22;1512;51.486;6.610;2022-11-11T23:18:28;7.40;99.90
3005;DHT22;1512;51.486;6.610;2022-11-11T23:22:37;7.40;99.90
3005;DHT22;1512;51.486;6.610;2022-11-11T23:27:05;7.30;99.90
3005;DHT22;1512;51.486;6.610;2022-11-11T23:31:16;7.30;99.90
3005;DHT22;1512;51.486;6.610;2022-11-11T23:35:25;7.30;99.90
3005;DHT22;1512;51.486;6.610;2022-11-11T23:39:34;7.30;99.90
3005;DHT22;1512;51.486;6.610;2022-11-11T23:43:42;7.30;99.90
3005;DHT22;1512;51.486;6.610;2022-11-11T23:47:51;7.20;99.90
3005;DHT22;1512;51.486;6.610;2022-11-11T23:52:19;7.20;99.90
3005;DHT22;1512;51.486;6.610;2022-11-11T23:56:27;7.20;99.90
